createdAt,value
2023-01-20T00:01:48.146Z,39.60
2023-01-20T00:04:15.594Z,41.03
2023-01-20T00:06:41.927Z,38.40
2023-01-20T00:09:08.280Z,37.38
2023-01-20T00:11:34.610Z,40.40
2023-01-20T00:14:02.497Z,38.50
2023-01-20T00:16:31.810Z,40.83
2023-01-20T00:18:58.733Z,43.05
2023-01-20T00:21:25.249Z,46.00
2023-01-20T00:23:51.690Z,50.30
2023-01-20T00:26:24.020Z,47.47
2023-01-20T00:28:54.273Z,50.10
2023-01-20T00:31:23.842Z,50.53
2023-01-20T00:33:51.918Z,46.33
2023-01-20T00:36:20.312Z,51.85
2023-01-20T00:38:46.883Z,54.65
2023-01-20T00:41:14.302Z,53.42
2023-01-20T00:43:40.853Z,49.78
2023-01-20T00:46:07.221Z,54.00
2023-01-20T00:48:34.387Z,49.55
2023-01-20T00:51:01.660Z,48.75
2023-01-20T00:53:28.132Z,49.45
2023-01-20T00:55:54.489Z,52.38
2023-01-20T00:58:21.031Z,51.83
2023-01-20T01:00:48.815Z,47.50
2023-01-20T01:03:15.880Z,48.25
2023-01-20T01:05:42.593Z,51.45
2023-01-20T01:08:09.851Z,47.28
2023-01-20T01:10:36.292Z,45.22
2023-01-20T01:13:03.888Z,48.88
2023-01-20T01:15:30.409Z,48.67
2023-01-20T01:17:58.871Z,43.97
2023-01-20T01:20:26.646Z,50.38
2023-01-20T01:22:53.212Z,46.22
2023-01-20T01:25:19.947Z,47.78
2023-01-20T01:27:46.307Z,43.35
2023-01-20T01:30:13.233Z,45.53
2023-01-20T01:32:39.690Z,45.40
2023-01-20T01:35:06.436Z,43.65
2023-01-20T01:37:47.869Z,49.22
2023-01-20T01:40:14.289Z,41.40
2023-01-20T01:42:42.895Z,43.47
2023-01-20T01:45:12.947Z,40.92
2023-01-20T01:48:05.549Z,40.00
2023-01-20T01:50:34.972Z,38.20
2023-01-20T01:53:01.460Z,39.90
2023-01-20T01:55:32.921Z,36.95
2023-01-20T01:57:59.845Z,37.53
2023-01-20T02:00:27.079Z,39.03
2023-01-20T02:02:54.859Z,37.83
2023-01-20T02:05:22.792Z,37.92
2023-01-20T02:07:49.300Z,37.35
2023-01-20T02:10:16.943Z,36.13
2023-01-20T02:12:49.458Z,39.28
2023-01-20T02:15:17.500Z,32.55
2023-01-20T02:18:28.826Z,34.60
2023-01-20T02:21:31.845Z,33.58
2023-01-20T02:24:17.871Z,34.15
2023-01-20T02:26:53.207Z,37.67
2023-01-20T02:29:39.678Z,40.30
2023-01-20T02:32:27.789Z,40.55
2023-01-20T02:34:59.479Z,39.03
2023-01-20T02:37:29.814Z,40.42
2023-01-20T02:40:28.646Z,46.80
2023-01-20T02:43:06.046Z,44.67
2023-01-20T02:45:44.629Z,45.72
2023-01-20T02:48:34.462Z,42.08
2023-01-20T02:51:14.775Z,44.80
2023-01-20T02:53:49.055Z,51.72
2023-01-20T02:56:17.034Z,46.03
2023-01-20T02:58:50.169Z,44.10
2023-01-20T03:01:28.055Z,50.40
2023-01-20T03:03:59.453Z,47.25
2023-01-20T03:06:31.300Z,47.60
2023-01-20T03:09:00.416Z,51.10
2023-01-20T03:11:29.295Z,50.22
2023-01-20T03:14:04.327Z,49.58
2023-01-20T03:16:31.260Z,45.97
2023-01-20T03:18:58.096Z,46.92
2023-01-20T03:21:24.949Z,46.60
2023-01-20T03:23:55.941Z,43.47
2023-01-20T03:26:23.281Z,39.80
2023-01-20T03:28:49.810Z,36.72
2023-01-20T03:31:38.167Z,39.60
2023-01-20T03:34:11.025Z,36.97
2023-01-20T03:36:39.071Z,39.50
2023-01-20T03:39:06.092Z,35.50
2023-01-20T03:41:52.756Z,36.47
2023-01-20T03:44:50.379Z,34.38
2023-01-20T03:47:25.907Z,32.92
2023-01-20T03:50:26.063Z,33.20
2023-01-20T03:53:06.797Z,34.13
2023-01-20T03:55:39.179Z,31.75
2023-01-20T03:58:12.632Z,32.15
2023-01-20T04:00:48.120Z,31.95
2023-01-20T04:03:37.375Z,33.42
2023-01-20T04:06:07.425Z,34.20
2023-01-20T04:08:37.266Z,32.33
2023-01-20T04:11:06.567Z,32.03
2023-01-20T04:13:33.228Z,34.08
2023-01-20T04:16:02.062Z,37.17
2023-01-20T04:18:28.953Z,37.80
2023-01-20T04:21:00.272Z,35.67
2023-01-20T04:23:35.726Z,36.90
2023-01-20T04:26:02.206Z,36.78
2023-01-20T04:28:28.563Z,36.80
2023-01-20T04:30:55.058Z,36.15
2023-01-20T04:33:21.523Z,37.17
2023-01-20T04:35:47.900Z,36.95
2023-01-20T04:38:14.306Z,39.05
2023-01-20T04:40:40.838Z,40.00
2023-01-20T04:43:07.250Z,40.63
2023-01-20T04:45:33.965Z,39.53
2023-01-20T04:48:00.338Z,38.22
2023-01-20T04:50:26.693Z,37.42
2023-01-20T04:52:56.402Z,38.20
2023-01-20T04:55:22.728Z,36.67
2023-01-20T04:57:49.064Z,35.65
2023-01-20T05:00:19.877Z,35.55
2023-01-20T05:02:47.140Z,36.90
2023-01-20T05:05:14.243Z,35.05
2023-01-20T05:07:40.963Z,33.67
2023-01-20T05:10:08.002Z,36.05
2023-01-20T05:12:34.354Z,37.15
2023-01-20T05:15:00.696Z,37.65
2023-01-20T05:17:27.025Z,35.30
2023-01-20T05:19:53.465Z,37.45
2023-01-20T05:22:19.958Z,37.10
2023-01-20T05:24:46.365Z,37.17
2023-01-20T05:27:12.706Z,35.60
2023-01-20T05:29:39.043Z,36.00
2023-01-20T05:32:05.642Z,36.20
2023-01-20T05:34:31.977Z,34.38
2023-01-20T05:36:58.327Z,35.28
2023-01-20T05:39:24.686Z,37.30
2023-01-20T05:41:51.029Z,34.67
2023-01-20T05:44:17.460Z,37.78
2023-01-20T05:46:44.021Z,35.40
2023-01-20T05:49:12.264Z,33.47
2023-01-20T05:51:38.667Z,36.60
2023-01-20T05:54:05.168Z,37.70
2023-01-20T05:56:31.579Z,36.70
2023-01-20T05:58:57.973Z,36.13
2023-01-20T06:01:24.390Z,41.30
2023-01-20T06:03:50.794Z,38.55
2023-01-20T06:06:18.298Z,37.72
2023-01-20T06:08:45.609Z,40.90
2023-01-20T06:11:13.557Z,38.92
2023-01-20T06:13:40.073Z,38.08
2023-01-20T06:16:07.628Z,37.22
2023-01-20T06:18:34.690Z,37.35
2023-01-20T06:21:03.798Z,37.60
2023-01-20T06:23:30.190Z,41.60
2023-01-20T06:26:04.552Z,40.08
2023-01-20T06:28:32.802Z,38.22
2023-01-20T06:31:00.989Z,36.00
2023-01-20T06:33:27.617Z,39.03
2023-01-20T06:35:55.610Z,40.63
2023-01-20T06:38:27.943Z,37.95
2023-01-20T06:41:02.598Z,38.78
2023-01-20T06:43:30.350Z,34.75
2023-01-20T06:46:04.662Z,32.63
2023-01-20T06:48:31.858Z,35.53
2023-01-20T06:51:06.070Z,34.97
2023-01-20T06:53:32.925Z,32.38
2023-01-20T06:56:00.713Z,30.17
2023-01-20T06:58:30.359Z,32.20
2023-01-20T07:00:57.859Z,31.15
2023-01-20T07:03:24.695Z,30.52
2023-01-20T07:06:16.239Z,28.42
2023-01-20T07:08:44.439Z,29.42
2023-01-20T07:11:17.180Z,32.88
2023-01-20T07:13:43.758Z,31.88
2023-01-20T07:16:12.563Z,31.25
2023-01-20T07:18:40.453Z,32.10
2023-01-20T07:21:07.083Z,32.00
2023-01-20T07:23:33.756Z,29.08
2023-01-20T07:26:09.018Z,29.77
2023-01-20T07:28:35.952Z,31.25
2023-01-20T07:31:09.432Z,31.15
2023-01-20T07:33:36.468Z,30.67
2023-01-20T07:36:03.214Z,34.00
2023-01-20T07:38:30.292Z,30.98
2023-01-20T07:41:01.398Z,31.00
2023-01-20T07:43:28.850Z,31.80
2023-01-20T07:46:00.566Z,31.55
2023-01-20T07:48:29.584Z,31.15
2023-01-20T07:51:01.948Z,31.55
2023-01-20T07:53:37.637Z,31.83
2023-01-20T07:56:07.223Z,32.45
2023-01-20T07:58:35.025Z,33.33
2023-01-20T08:01:16.674Z,32.78
2023-01-20T08:03:44.155Z,29.58
2023-01-20T08:06:13.224Z,30.67
2023-01-20T08:08:40.105Z,30.45
2023-01-20T08:11:11.775Z,30.60
2023-01-20T08:13:40.480Z,29.48
2023-01-20T08:16:10.053Z,31.83
2023-01-20T08:18:43.282Z,28.90
2023-01-20T08:21:18.687Z,27.90
2023-01-20T08:23:56.623Z,28.10
2023-01-20T08:26:25.072Z,26.27
2023-01-20T08:28:52.188Z,28.15
2023-01-20T08:31:24.885Z,26.83
2023-01-20T08:33:55.513Z,27.60
2023-01-20T08:36:25.860Z,30.58
2023-01-20T08:38:52.230Z,26.88
2023-01-20T08:41:22.982Z,28.80
2023-01-20T08:43:51.063Z,28.67
2023-01-20T08:46:19.588Z,29.83
2023-01-20T08:48:46.862Z,29.73
2023-01-20T08:51:16.906Z,28.40
2023-01-20T08:53:44.563Z,28.05
2023-01-20T08:56:12.731Z,27.05
2023-01-20T08:58:39.598Z,25.67
2023-01-20T09:01:15.103Z,24.98
2023-01-20T09:03:45.051Z,25.20
2023-01-20T09:06:16.446Z,26.13
2023-01-20T09:08:43.349Z,24.90
2023-01-20T09:11:18.187Z,24.30
2023-01-20T09:13:44.757Z,24.00
2023-01-20T09:16:12.920Z,24.63
2023-01-20T09:18:39.486Z,23.33
2023-01-20T09:21:06.751Z,22.25
2023-01-20T09:23:35.171Z,21.95
2023-01-20T09:26:05.452Z,24.38
2023-01-20T09:28:35.138Z,24.25
2023-01-20T09:31:04.191Z,24.58
2023-01-20T09:33:31.507Z,24.60
2023-01-20T09:35:58.794Z,26.73
2023-01-20T09:38:46.348Z,24.52
2023-01-20T09:41:47.725Z,24.70
2023-01-20T09:44:19.879Z,24.88
2023-01-20T09:47:15.590Z,28.38
2023-01-20T09:50:31.922Z,25.63
2023-01-20T09:53:16.215Z,26.27
2023-01-20T09:58:37.134Z,22.60
2023-01-20T10:01:10.255Z,23.80
2023-01-20T10:03:47.010Z,29.45
2023-01-20T10:06:24.724Z,27.73
2023-01-20T10:09:23.517Z,29.33
2023-01-20T10:11:54.245Z,25.77
2023-01-20T10:14:48.665Z,28.85
2023-01-20T10:17:20.933Z,27.67
2023-01-20T10:19:56.462Z,30.35
2023-01-20T10:22:31.697Z,28.77
2023-01-20T10:25:13.200Z,28.83
2023-01-20T10:27:50.349Z,29.48
2023-01-20T10:30:20.548Z,32.13
2023-01-20T10:33:39.758Z,33.00
2023-01-20T10:36:16.560Z,26.83
2023-01-20T10:39:09.425Z,33.38
2023-01-20T10:41:45.404Z,28.88
2023-01-20T10:44:15.366Z,29.40
2023-01-20T10:47:11.684Z,31.92
2023-01-20T10:50:06.022Z,28.45
2023-01-20T10:52:59.596Z,26.88
2023-01-20T10:55:53.441Z,25.05
2023-01-20T10:58:49.477Z,30.23
2023-01-20T11:01:19.187Z,29.30
2023-01-20T11:03:48.321Z,31.10
2023-01-20T11:06:27.224Z,30.77
2023-01-20T11:09:17.056Z,31.88
2023-01-20T11:11:45.510Z,32.35
2023-01-20T11:14:11.939Z,32.75
2023-01-20T11:16:44.679Z,31.65
2023-01-20T11:19:14.241Z,33.03
2023-01-20T11:21:45.423Z,30.58
2023-01-20T11:24:47.714Z,30.13
2023-01-20T11:27:23.954Z,28.45
2023-01-20T11:29:56.957Z,28.20
2023-01-20T11:32:37.255Z,28.55
2023-01-20T11:35:25.349Z,27.63
2023-01-20T11:37:52.475Z,26.52
2023-01-20T11:40:30.240Z,27.17
2023-01-20T11:42:56.873Z,25.58
2023-01-20T11:45:36.118Z,22.17
2023-01-20T11:48:05.632Z,23.55
2023-01-20T11:51:03.641Z,23.90
2023-01-20T11:53:32.358Z,24.25
2023-01-20T11:56:03.589Z,21.83
2023-01-20T11:58:48.229Z,20.23
2023-01-20T12:01:23.190Z,22.33
2023-01-20T12:04:23.250Z,26.02
2023-01-20T12:06:56.095Z,22.73
2023-01-20T12:09:30.307Z,22.90
2023-01-20T12:12:01.585Z,21.95
2023-01-20T12:15:09.578Z,21.05
2023-01-20T12:18:20.793Z,21.58
2023-01-20T12:20:56.131Z,19.63
2023-01-20T12:23:28.836Z,19.80
2023-01-20T12:25:59.922Z,20.40
2023-01-20T12:28:52.052Z,21.33
2023-01-20T12:31:20.681Z,18.15
2023-01-20T12:33:59.413Z,20.98
2023-01-20T12:36:50.431Z,20.92
2023-01-20T12:39:38.042Z,22.08
2023-01-20T12:42:19.645Z,21.00
2023-01-20T12:44:49.011Z,19.00
2023-01-20T12:47:40.450Z,22.83
2023-01-20T12:50:35.965Z,19.90
2023-01-20T12:53:51.956Z,19.67
2023-01-20T12:56:53.611Z,18.30
2023-01-20T12:59:38.128Z,18.60
2023-01-20T13:02:24.630Z,20.02
2023-01-20T13:05:40.218Z,19.55
2023-01-20T13:08:36.389Z,20.35
2023-01-20T13:11:36.046Z,19.20
2023-01-20T13:14:20.755Z,20.42
2023-01-20T13:16:47.189Z,20.45
2023-01-20T13:19:16.929Z,21.33
2023-01-20T13:21:48.232Z,21.45
2023-01-20T13:24:24.319Z,21.15
2023-01-20T13:26:51.589Z,21.02
2023-01-20T13:29:40.047Z,22.00
2023-01-20T13:32:28.175Z,20.52
2023-01-20T13:34:54.894Z,20.45
2023-01-20T13:37:39.576Z,20.95
2023-01-20T13:40:38.388Z,20.80
2023-01-20T13:43:25.309Z,20.85
2023-01-20T13:46:07.327Z,20.20
2023-01-20T13:48:35.707Z,21.10
2023-01-20T13:51:27.129Z,20.88
2023-01-20T13:53:53.788Z,20.95
2023-01-20T13:56:39.689Z,20.90
2023-01-20T13:59:37.440Z,22.38
2023-01-20T14:02:20.637Z,19.88
2023-01-20T14:04:48.631Z,20.90
2023-01-20T14:07:29.889Z,19.13
2023-01-20T14:09:58.904Z,18.88
2023-01-20T14:12:29.085Z,18.83
2023-01-20T14:14:55.836Z,20.90
2023-01-20T14:17:24.173Z,19.92
2023-01-20T14:19:53.820Z,19.50
2023-01-20T14:22:32.554Z,19.92
2023-01-20T14:25:00.724Z,18.92
2023-01-20T14:27:35.481Z,21.15
2023-01-20T14:30:18.756Z,19.73
2023-01-20T14:32:45.806Z,20.40
2023-01-20T14:35:27.435Z,19.63
2023-01-20T14:37:54.528Z,20.23
2023-01-20T14:40:23.625Z,20.92
2023-01-20T14:43:11.130Z,22.58
2023-01-20T14:45:37.953Z,20.85
2023-01-20T14:48:07.656Z,20.85
2023-01-20T14:50:34.258Z,20.95
2023-01-20T14:53:00.703Z,20.90
2023-01-20T14:55:40.644Z,20.02
2023-01-20T14:58:09.460Z,19.33
2023-01-20T15:00:43.126Z,20.73
2023-01-20T15:03:24.897Z,21.05
2023-01-20T15:06:15.761Z,20.23
2023-01-20T15:08:56.987Z,20.95
2023-01-20T15:11:32.509Z,20.25
2023-01-20T15:14:04.319Z,19.83
2023-01-20T15:16:36.472Z,20.77
2023-01-20T15:19:17.371Z,19.63
2023-01-20T15:21:49.550Z,20.42
2023-01-20T15:24:17.058Z,18.92
2023-01-20T15:26:45.451Z,20.45
2023-01-20T15:29:21.158Z,19.55
2023-01-20T15:31:48.478Z,20.23
2023-01-20T15:34:15.301Z,18.55
2023-01-20T15:36:43.823Z,20.55
2023-01-20T15:39:19.292Z,19.75
2023-01-20T15:41:48.582Z,20.17
2023-01-20T15:44:15.681Z,19.40
2023-01-20T15:46:42.378Z,21.67
2023-01-20T15:49:12.544Z,20.38
2023-01-20T15:51:39.190Z,20.60
2023-01-20T15:54:09.243Z,21.15
2023-01-20T15:56:38.855Z,21.42
2023-01-20T15:59:16.708Z,19.63
2023-01-20T16:01:47.264Z,22.17
2023-01-20T16:04:13.940Z,21.33
2023-01-20T16:06:44.512Z,21.58
2023-01-20T16:09:19.589Z,19.58
2023-01-20T16:11:47.544Z,20.27
2023-01-20T16:14:15.200Z,20.70
2023-01-20T16:16:44.047Z,21.00
2023-01-20T16:19:15.762Z,19.95
2023-01-20T16:21:45.683Z,21.65
2023-01-20T16:24:13.041Z,19.50
2023-01-20T16:26:47.008Z,19.58
2023-01-20T16:29:13.472Z,20.80
2023-01-20T16:31:40.023Z,20.17
2023-01-20T16:34:07.896Z,21.50
2023-01-20T16:36:34.334Z,20.02
2023-01-20T16:39:00.887Z,19.38
2023-01-20T16:41:31.696Z,19.90
2023-01-20T16:44:01.012Z,21.00
2023-01-20T16:46:30.141Z,20.73
2023-01-20T16:49:01.610Z,22.42
2023-01-20T16:51:29.077Z,19.95
2023-01-20T16:53:56.929Z,21.65
2023-01-20T16:56:25.811Z,23.27
2023-01-20T16:58:54.545Z,27.65
2023-01-20T17:01:24.482Z,29.30
2023-01-20T17:03:53.186Z,24.15
2023-01-20T17:06:21.921Z,23.25
2023-01-20T17:08:50.615Z,23.98
2023-01-20T17:11:22.948Z,23.52
2023-01-20T17:13:50.403Z,26.40
2023-01-20T17:16:17.689Z,26.05
2023-01-20T17:18:47.045Z,27.27
2023-01-20T17:21:14.000Z,27.25
2023-01-20T17:23:41.509Z,27.55
2023-01-20T17:26:09.947Z,28.17
2023-01-20T17:28:36.468Z,27.42
2023-01-20T17:31:06.643Z,30.90
2023-01-20T17:33:33.960Z,27.38
2023-01-20T17:36:02.906Z,26.00
2023-01-20T17:38:30.993Z,29.42
2023-01-20T17:41:03.964Z,27.33
2023-01-20T17:43:35.433Z,29.65
2023-01-20T17:46:12.099Z,28.02
2023-01-20T17:48:39.054Z,29.30
2023-01-20T17:51:20.308Z,30.80
2023-01-20T17:53:47.785Z,29.83
2023-01-20T17:56:15.299Z,31.88
2023-01-20T17:58:43.787Z,29.88
2023-01-20T18:01:16.755Z,31.80
2023-01-20T18:03:44.198Z,30.98
2023-01-20T18:06:12.998Z,30.85
2023-01-20T18:08:40.059Z,30.15
2023-01-20T18:11:12.916Z,28.42
2023-01-20T18:13:39.353Z,29.27
2023-01-20T18:16:11.521Z,28.83
2023-01-20T18:18:43.151Z,27.58
2023-01-20T18:21:15.087Z,27.10
2023-01-20T18:23:42.137Z,27.15
2023-01-20T18:26:11.527Z,28.95
2023-01-20T18:28:40.761Z,25.98
2023-01-20T18:31:13.666Z,24.95
2023-01-20T18:33:44.586Z,25.45
2023-01-20T18:36:25.011Z,25.85
2023-01-20T18:38:57.312Z,23.70
2023-01-20T18:41:25.915Z,25.85
2023-01-20T18:43:52.422Z,26.35
2023-01-20T18:46:26.536Z,27.77
2023-01-20T18:48:55.445Z,26.58
2023-01-20T18:51:27.584Z,27.50
2023-01-20T18:53:59.784Z,28.98
2023-01-20T18:56:27.717Z,26.75
2023-01-20T18:58:55.764Z,26.58
2023-01-20T19:01:25.192Z,27.42
2023-01-20T19:03:52.443Z,29.73
2023-01-20T19:06:24.475Z,29.33
2023-01-20T19:08:51.385Z,29.70
2023-01-20T19:11:23.690Z,28.90
2023-01-20T19:13:53.714Z,30.50
2023-01-20T19:16:22.851Z,27.88
2023-01-20T19:18:54.871Z,29.25
2023-01-20T19:21:22.293Z,29.48
2023-01-20T19:23:51.906Z,28.73
2023-01-20T19:26:19.192Z,28.60
2023-01-20T19:28:47.446Z,28.50
2023-01-20T19:31:17.529Z,28.35
2023-01-20T19:33:45.013Z,28.58
2023-01-20T19:36:14.016Z,29.83
2023-01-20T19:38:41.790Z,28.85
2023-01-20T19:41:11.280Z,28.48
2023-01-20T19:43:38.298Z,28.33
2023-01-20T19:46:07.373Z,28.95
2023-01-20T19:48:34.244Z,27.85
2023-01-20T19:51:11.628Z,28.83
2023-01-20T19:53:38.838Z,27.98
2023-01-20T19:56:17.459Z,28.50
2023-01-20T19:58:45.004Z,27.95
2023-01-20T20:01:15.211Z,29.02
2023-01-20T20:03:42.773Z,28.45
2023-01-20T20:06:26.190Z,25.05
2023-01-20T20:08:53.962Z,24.07
2023-01-20T20:11:20.749Z,26.02
2023-01-20T20:13:47.356Z,26.70
2023-01-20T20:16:13.996Z,27.20
2023-01-20T20:18:40.627Z,28.30
2023-01-20T20:21:08.345Z,28.05
2023-01-20T20:23:34.850Z,29.00
2023-01-20T20:26:01.263Z,27.30
2023-01-20T20:28:29.494Z,26.83
2023-01-20T20:30:56.069Z,27.30
2023-01-20T20:33:23.680Z,26.60
2023-01-20T20:35:50.393Z,28.08
2023-01-20T20:38:16.954Z,27.20
2023-01-20T20:40:43.445Z,27.73
2023-01-20T20:43:10.099Z,30.60
2023-01-20T20:45:36.492Z,27.45
2023-01-20T20:48:03.159Z,31.52
2023-01-20T20:50:29.632Z,28.90
2023-01-20T20:52:59.163Z,27.48
2023-01-20T20:55:26.155Z,28.67
2023-01-20T20:57:52.770Z,30.02
2023-01-20T21:00:23.281Z,28.77
2023-01-20T21:02:49.750Z,28.23
2023-01-20T21:05:18.062Z,26.52
2023-01-20T21:07:44.974Z,25.35
2023-01-20T21:10:13.852Z,26.92
2023-01-20T21:12:40.435Z,24.38
2023-01-20T21:15:07.512Z,25.73
2023-01-20T21:17:33.855Z,24.65
2023-01-20T21:20:00.209Z,25.70
2023-01-20T21:22:27.108Z,25.10
2023-01-20T21:24:53.472Z,25.48
2023-01-20T21:27:19.849Z,23.15
2023-01-20T21:29:46.456Z,23.67
2023-01-20T21:32:12.973Z,25.33
2023-01-20T21:34:39.302Z,24.77
2023-01-20T21:37:08.802Z,23.38
2023-01-20T21:39:35.363Z,23.60
2023-01-20T21:42:01.791Z,22.27
2023-01-20T21:44:28.268Z,22.60
2023-01-20T21:47:02.865Z,22.83
2023-01-20T21:49:47.878Z,21.65
2023-01-20T21:52:35.432Z,20.48
2023-01-20T21:55:02.705Z,24.23
2023-01-20T21:57:29.278Z,24.33
2023-01-20T21:59:56.302Z,24.35
2023-01-20T22:02:22.770Z,24.75
2023-01-20T22:04:49.229Z,23.17
2023-01-20T22:07:16.487Z,20.80
2023-01-20T22:09:43.191Z,19.85
2023-01-20T22:12:10.019Z,23.85
2023-01-20T22:14:36.883Z,22.05
2023-01-20T22:17:03.671Z,21.92
2023-01-20T22:19:30.076Z,20.65
2023-01-20T22:21:56.815Z,23.15
2023-01-20T22:24:23.261Z,22.15
2023-01-20T22:26:49.778Z,22.80
2023-01-20T22:29:17.249Z,23.20
2023-01-20T22:31:44.834Z,23.60
2023-01-20T22:34:11.647Z,25.35
2023-01-20T22:36:38.623Z,25.85
2023-01-20T22:39:06.644Z,26.83
2023-01-20T22:41:33.446Z,24.98
2023-01-20T22:43:59.836Z,25.23
2023-01-20T22:46:28.065Z,26.00
2023-01-20T22:48:59.981Z,27.25
2023-01-20T22:51:32.038Z,25.45
2023-01-20T22:54:02.588Z,25.25
2023-01-20T22:56:31.853Z,24.13
2023-01-20T22:58:59.716Z,21.42
2023-01-20T23:01:29.600Z,20.20
2023-01-20T23:03:58.223Z,22.33
2023-01-20T23:06:25.974Z,20.40
2023-01-20T23:08:52.604Z,21.48
2023-01-20T23:11:21.474Z,20.85
2023-01-20T23:13:48.239Z,21.98
2023-01-20T23:16:17.703Z,21.23
2023-01-20T23:18:45.307Z,20.92
2023-01-20T23:21:12.064Z,22.20
2023-01-20T23:23:39.315Z,23.42
2023-01-20T23:26:13.615Z,21.67
2023-01-20T23:28:40.023Z,22.20
2023-01-20T23:31:08.197Z,24.10
2023-01-20T23:33:34.633Z,21.88
2023-01-20T23:36:10.557Z,24.08
2023-01-20T23:38:37.641Z,21.40
2023-01-20T23:41:04.366Z,22.27
2023-01-20T23:43:31.534Z,21.85
2023-01-20T23:45:59.676Z,22.60
2023-01-20T23:48:26.959Z,26.08
2023-01-20T23:50:54.596Z,24.45
2023-01-20T23:53:21.010Z,25.73
2023-01-20T23:55:47.589Z,25.45
2023-01-20T23:58:14.315Z,27.90
